Time;durP1;ratioP1;P1;durP2;ratioP2;P2;SDS_P1;SDS_P2;PMS_P1;PMS_P2;Temp;Humidity;BMP_temperature;BMP_pressure;BME280_temperature;BME280_humidity;BME280_pressure;Samples;Min_cycle;Max_cycle;Signal;HPM_P1;HPM_P2
2023/04/19 00:00:56;;;;;;;7.40;3.28;;;;;;;19.42;49.56;100183.25;5072216;28;20048;-73
2023/04/19 00:03:25;;;;;;;7.95;3.28;;;;;;;19.41;49.73;100189.66;5072095;28;20102;-74
2023/04/19 00:05:57;;;;;;;6.85;3.03;;;;;;;19.39;50.00;100180.81;5071937;28;20102;-74
2023/04/19 00:08:26;;;;;;;7.55;3.17;;;;;;;19.39;49.95;100178.13;5072087;28;20045;-74
2023/04/19 00:10:55;;;;;;;7.07;3.28;;;;;;;19.38;49.54;100173.72;5072130;28;20040;-72
2023/04/19 00:13:28;;;;;;;6.60;3.15;;;;;;;19.36;49.81;100169.47;5071966;28;20052;-75
2023/04/19 00:15:56;;;;;;;6.93;3.30;;;;;;;19.37;49.85;100171.16;5071893;28;20052;-73
2023/04/19 00:18:25;;;;;;;6.55;3.63;;;;;;;19.35;49.84;100174.03;5071910;28;20048;-73
2023/04/19 00:20:53;;;;;;;6.43;2.97;;;;;;;19.35;49.87;100168.63;5071740;28;20106;-74
2023/04/19 00:23:21;;;;;;;7.25;3.40;;;;;;;19.33;50.03;100165.22;5072008;28;20056;-73
2023/04/19 00:25:49;;;;;;;8.20;3.25;;;;;;;19.33;49.94;100167.94;5071779;28;20097;-74
2023/04/19 00:28:19;;;;;;;7.00;3.28;;;;;;;19.31;49.84;100167.22;5071705;28;20052;-74
2023/04/19 00:30:47;;;;;;;6.90;3.22;;;;;;;19.32;50.16;100158.13;5071456;28;20147;-74
2023/04/19 00:33:16;;;;;;;7.82;3.45;;;;;;;19.30;49.83;100156.53;5071511;28;20083;-74
2023/04/19 00:35:44;;;;;;;7.40;3.15;;;;;;;19.27;50.15;100155.00;5071848;28;20055;-74
2023/04/19 00:38:12;;;;;;;6.78;3.38;;;;;;;19.28;49.89;100154.00;5071657;28;20087;-74
2023/04/19 00:40:40;;;;;;;6.57;3.28;;;;;;;19.28;49.98;100156.69;5071664;28;20040;-73
2023/04/19 00:43:08;;;;;;;6.78;3.33;;;;;;;19.27;49.87;100148.75;5071512;28;20045;-72
2023/04/19 00:45:38;;;;;;;7.45;3.35;;;;;;;19.26;50.18;100153.31;5071553;28;20087;-73
2023/04/19 00:48:06;;;;;;;6.35;3.08;;;;;;;19.26;49.91;100152.44;5071373;28;20044;-72
2023/04/19 00:50:35;;;;;;;7.03;3.30;;;;;;;19.25;49.71;100150.75;5071714;28;20417;-74
2023/04/19 00:53:04;;;;;;;7.22;3.20;;;;;;;19.23;49.98;100142.78;5071620;28;20055;-74
2023/04/19 00:55:32;;;;;;;8.05;3.67;;;;;;;19.24;49.99;100144.50;5071571;28;20072;-75
2023/04/19 00:58:00;;;;;;;6.65;3.22;;;;;;;19.22;49.77;100142.94;5071525;28;20049;-75
2023/04/19 01:00:29;;;;;;;6.93;3.20;;;;;;;19.22;50.06;100138.38;5071309;28;20053;-76
2023/04/19 01:02:58;;;;;;;6.97;3.03;;;;;;;19.21;49.43;100142.09;5071834;28;20052;-73
2023/04/19 01:05:27;;;;;;;6.00;3.15;;;;;;;19.21;49.66;100143.94;5071513;28;20115;-74
2023/04/19 01:07:55;;;;;;;6.50;3.22;;;;;;;19.20;49.76;100142.22;5071709;28;20045;-73
2023/04/19 01:10:24;;;;;;;5.43;2.85;;;;;;;19.19;50.24;100135.13;5071382;28;20098;-74
2023/04/19 01:12:52;;;;;;;7.97;3.20;;;;;;;19.16;50.00;100133.56;5071535;28;20041;-74
2023/04/19 01:15:21;;;;;;;9.38;3.55;;;;;;;19.16;50.20;100131.72;5071607;28;20051;-73
2023/04/19 01:17:49;;;;;;;7.93;3.35;;;;;;;19.16;49.97;100130.88;5071078;28;20040;-73
2023/04/19 01:20:19;;;;;;;8.25;3.60;;;;;;;19.13;50.23;100120.38;5071394;28;20056;-74
2023/04/19 01:22:48;;;;;;;5.20;2.90;;;;;;;19.13;49.80;100117.66;5071290;28;20078;-74
2023/04/19 01:25:16;;;;;;;6.97;3.30;;;;;;;19.10;50.34;100116.09;5071427;28;20645;-75
2023/04/19 01:27:44;;;;;;;6.60;3.15;;;;;;;19.11;50.13;100115.13;5071873;28;20056;-74
2023/04/19 01:30:13;;;;;;;6.00;3.28;;;;;;;19.11;49.77;100115.13;5074751;28;20143;-74
2023/04/19 01:32:41;;;;;;;6.45;2.90;;;;;;;19.09;49.64;100110.84;5074931;28;20040;-75
2023/04/19 01:35:11;;;;;;;5.85;3.00;;;;;;;19.08;49.82;100106.44;5074821;28;20060;-74
2023/04/19 01:37:39;;;;;;;9.48;3.35;;;;;;;19.07;50.02;100100.19;5074720;28;20052;-74
2023/04/19 01:40:09;;;;;;;8.38;3.03;;;;;;;19.06;50.03;100100.34;5074569;28;20048;-74
2023/04/19 01:42:37;;;;;;;6.38;3.08;;;;;;;19.04;49.82;100102.34;5074860;28;20462;-75
2023/04/19 01:45:07;;;;;;;6.43;3.10;;;;;;;19.06;50.08;100097.63;5074684;28;20044;-75
2023/04/19 01:47:35;;;;;;;7.90;3.20;;;;;;;19.03;50.33;100097.94;5074534;28;20048;-75
2023/04/19 01:50:03;;;;;;;6.43;3.17;;;;;;;19.03;49.84;100092.53;5074528;28;20099;-73
2023/04/19 01:52:31;;;;;;;6.15;3.15;;;;;;;19.01;50.22;100091.81;5074293;28;20474;-74
2023/04/19 01:54:59;;;;;;;8.65;3.38;;;;;;;19.03;50.28;100100.66;5074397;28;20139;-75
2023/04/19 01:57:29;;;;;;;6.72;3.30;;;;;;;19.01;49.93;100099.91;5074497;28;20104;-75
2023/04/19 01:59:57;;;;;;;6.22;2.80;;;;;;;18.99;50.07;100091.97;5074736;28;20040;-73
2023/04/19 02:02:25;;;;;;;6.60;3.00;;;;;;;19.00;50.34;100098.22;5074468;28;20164;-74
2023/04/19 02:04:54;;;;;;;6.50;3.28;;;;;;;18.99;50.11;100094.66;5074303;28;20585;-73
2023/04/19 02:07:22;;;;;;;7.47;3.05;;;;;;;18.98;50.03;100092.13;5074018;28;20053;-74
2023/04/19 02:09:50;;;;;;;6.32;3.10;;;;;;;18.98;50.18;100094.81;5074299;28;20051;-76
2023/04/19 02:12:18;;;;;;;7.20;3.40;;;;;;;18.96;50.15;100091.41;5074240;28;20452;-73
2023/04/19 02:14:48;;;;;;;6.38;3.08;;;;;;;18.95;50.11;100081.63;5073937;28;20049;-73
2023/04/19 02:17:16;;;;;;;5.55;3.10;;;;;;;18.94;50.49;100085.31;5074000;28;20135;-73
2023/04/19 02:19:44;;;;;;;7.63;3.22;;;;;;;18.91;50.59;100077.50;5073774;28;20452;-74
2023/04/19 02:22:12;;;;;;;6.97;3.20;;;;;;;18.93;50.32;100083.63;5073817;28;20501;-73
2023/04/19 02:24:40;;;;;;;7.07;3.05;;;;;;;18.82;50.37;100069.31;5073792;28;20044;-73
2023/04/19 02:27:08;;;;;;;7.07;3.28;;;;;;;18.90;50.31;100082.06;5073921;28;20482;-72
2023/04/19 02:29:37;;;;;;;5.50;2.95;;;;;;;18.91;50.41;100088.31;5073537;28;20434;-74
2023/04/19 02:32:07;;;;;;;8.05;3.28;;;;;;;18.88;50.38;100074.09;5074416;28;20049;-73
2023/04/19 02:34:35;;;;;;;7.50;3.38;;;;;;;18.87;50.41;100077.81;5073947;28;20111;-74
2023/04/19 02:37:03;;;;;;;6.40;3.15;;;;;;;18.87;50.34;100074.25;5073764;28;20048;-74
2023/04/19 02:39:33;;;;;;;6.03;2.85;;;;;;;18.83;50.54;100062.91;5073397;28;20477;-74
2023/04/19 02:42:01;;;;;;;7.38;3.28;;;;;;;18.85;50.72;100066.28;5073538;28;20041;-73
2023/04/19 02:44:29;;;;;;;6.80;3.55;;;;;;;18.84;50.42;100066.44;5073517;28;20049;-73
2023/04/19 02:46:57;;;;;;;6.57;3.17;;;;;;;18.84;50.59;100067.31;5073210;28;20066;-73
2023/04/19 02:49:27;;;;;;;6.35;3.15;;;;;;;18.80;50.71;100060.47;5073288;28;20044;-73
2023/04/19 02:51:55;;;;;;;5.70;2.97;;;;;;;18.81;50.76;100062.19;5073589;28;20048;-74
2023/04/19 02:54:23;;;;;;;6.60;3.30;;;;;;;18.80;50.65;100057.78;5073149;28;20478;-74
2023/04/19 02:56:51;;;;;;;5.88;3.00;;;;;;;18.80;50.63;100055.06;5073178;28;20548;-73
2023/04/19 02:59:19;;;;;;;6.28;3.10;;;;;;;18.79;50.38;100053.38;5073158;28;20084;-74
2023/04/19 03:01:47;;;;;;;5.75;3.20;;;;;;;18.77;50.33;100052.69;5073058;28;20585;-73
2023/04/19 03:04:16;;;;;;;8.35;3.60;;;;;;;18.77;50.56;100047.28;5073199;28;20139;-74
2023/04/19 03:06:48;;;;;;;6.03;2.72;;;;;;;18.76;50.61;100042.88;5073121;28;20044;-73
2023/04/19 03:09:16;;;;;;;6.63;3.05;;;;;;;18.77;50.73;100041.03;5073006;28;20040;-75
2023/04/19 03:11:44;;;;;;;6.55;2.97;;;;;;;18.75;50.96;100038.47;5072950;28;20052;-75
2023/04/19 03:14:13;;;;;;;5.22;3.05;;;;;;;18.74;50.64;100033.22;5072847;28;20049;-74
2023/04/19 03:16:41;;;;;;;6.40;2.95;;;;;;;18.74;50.88;100036.78;5073073;28;20050;-75
2023/04/19 03:19:10;;;;;;;6.65;3.15;;;;;;;18.73;50.76;100037.78;5072747;28;20559;-74
2023/04/19 03:21:38;;;;;;;6.47;2.97;;;;;;;18.72;50.64;100033.38;5072747;28;20135;-75
2023/04/19 03:24:08;;;;;;;5.95;3.38;;;;;;;18.72;50.80;100033.38;5072649;28;20083;-75
2023/04/19 03:26:36;;;;;;;5.88;3.17;;;;;;;18.70;50.84;100026.41;5072705;28;20048;-75
2023/04/19 03:29:04;;;;;;;5.47;3.15;;;;;;;18.70;50.88;100026.41;5072370;28;20067;-75
2023/04/19 03:31:33;;;;;;;8.55;3.63;;;;;;;18.69;50.70;100024.72;5072814;28;20048;-74
2023/04/19 03:34:01;;;;;;;6.63;3.28;;;;;;;18.67;50.93;100024.88;5072565;28;20048;-73
2023/04/19 03:36:29;;;;;;;6.45;3.22;;;;;;;18.66;50.68;100015.06;5072609;28;20094;-74
2023/04/19 03:38:58;;;;;;;5.80;3.20;;;;;;;18.63;51.02;100015.34;5072479;28;20048;-75
2023/04/19 03:41:29;;;;;;;7.90;3.75;;;;;;;18.65;50.74;100018.75;5072404;28;20048;-74
2023/04/19 03:43:58;;;;;;;6.25;3.30;;;;;;;18.63;50.73;100020.75;5072689;28;20140;-74
2023/04/19 03:46:30;;;;;;;6.40;3.33;;;;;;;18.63;50.82;100023.44;5072435;28;20056;-75
2023/04/19 03:48:58;;;;;;;7.75;3.92;;;;;;;18.63;50.95;100019.88;5072198;28;20513;-75
2023/04/19 03:51:27;;;;;;;6.30;3.22;;;;;;;18.62;51.01;100021.72;5072159;28;20076;-74
2023/04/19 03:53:55;;;;;;;6.47;3.20;;;;;;;18.63;50.65;100023.44;5072639;28;20051;-75
2023/04/19 03:56:23;;;;;;;5.32;2.75;;;;;;;18.62;51.04;100019.00;5072672;28;20082;-75
2023/04/19 03:58:53;;;;;;;4.95;3.08;;;;;;;18.59;50.82;100016.63;5072501;28;20049;-76
2023/04/19 04:01:23;;;;;;;8.02;3.53;;;;;;;18.60;50.55;100019.16;5072314;28;20520;-75
2023/04/19 04:03:51;;;;;;;6.30;3.55;;;;;;;18.58;51.06;100023.03;5072910;28;20053;-75
2023/04/19 04:06:19;;;;;;;4.63;2.95;;;;;;;18.58;50.89;100014.91;5072226;28;20508;-74
2023/04/19 04:08:47;;;;;;;7.30;3.42;;;;;;;18.58;50.88;100018.47;5072038;28;20063;-75
2023/04/19 04:11:16;;;;;;;4.72;2.80;;;;;;;18.57;51.09;100024.03;5072201;28;20553;-74
2023/04/19 04:13:45;;;;;;;5.88;3.28;;;;;;;18.56;50.99;100022.31;5071977;28;20087;-75
2023/04/19 04:16:14;;;;;;;5.70;3.15;;;;;;;18.55;51.19;100015.22;5071986;28;20078;-74
2023/04/19 04:18:43;;;;;;;6.70;3.47;;;;;;;18.55;50.86;100017.94;5071687;28;20702;-74
2023/04/19 04:21:11;;;;;;;4.90;2.88;;;;;;;18.52;51.14;100008.25;5071694;28;20072;-74
2023/04/19 04:23:39;;;;;;;7.05;3.22;;;;;;;18.54;51.11;100021.63;5072079;28;20134;-75
2023/04/19 04:26:09;;;;;;;6.75;2.95;;;;;;;18.53;51.03;100017.22;5072082;28;20082;-74
2023/04/19 04:28:38;;;;;;;5.35;3.15;;;;;;;18.53;51.01;100014.53;5072009;28;20052;-75
2023/04/19 04:31:06;;;;;;;5.60;3.00;;;;;;;18.52;50.94;100019.06;5071775;28;20045;-73
2023/04/19 04:33:36;;;;;;;5.85;3.08;;;;;;;18.51;50.96;100020.06;5071732;28;20132;-75
2023/04/19 04:36:04;;;;;;;6.85;3.30;;;;;;;18.51;51.19;100014.66;5072052;28;20044;-74
2023/04/19 04:38:34;;;;;;;5.32;3.08;;;;;;;18.50;50.96;100015.66;5071544;28;20048;-75
2023/04/19 04:41:02;;;;;;;6.30;3.25;;;;;;;18.50;50.83;100012.09;5071643;28;20045;-74
2023/04/19 04:43:31;;;;;;;6.68;3.13;;;;;;;18.47;51.10;100005.16;5071895;28;20044;-74
2023/04/19 04:45:59;;;;;;;5.18;2.95;;;;;;;18.48;50.99;100011.41;5071778;28;20044;-74
2023/04/19 04:48:28;;;;;;;6.63;3.00;;;;;;;18.47;50.80;100015.13;5071348;28;20057;-74
2023/04/19 04:50:58;;;;;;;6.13;3.10;;;;;;;18.48;50.90;100011.41;5071859;28;20458;-74
2023/04/19 04:53:26;;;;;;;5.50;3.00;;;;;;;18.46;51.20;100008.88;5071330;28;20505;-74
2023/04/19 04:55:54;;;;;;;6.38;3.22;;;;;;;18.46;51.06;100010.72;5071482;28;20079;-74
2023/04/19 04:58:22;;;;;;;5.68;2.92;;;;;;;18.43;50.89;100001.06;5071341;28;20052;-73
2023/04/19 05:00:50;;;;;;;5.22;3.10;;;;;;;18.45;50.81;100006.31;5071254;28;20079;-75
2023/04/19 05:03:18;;;;;;;5.00;3.03;;;;;;;18.44;51.07;100002.78;5073336;28;20055;-74
2023/04/19 05:05:47;;;;;;;5.43;2.97;;;;;;;18.43;50.89;100003.78;5075500;28;20136;-74
2023/04/19 05:08:16;;;;;;;4.65;2.90;;;;;;;18.41;50.92;99996.78;5075138;28;20049;-75
2023/04/19 05:10:44;;;;;;;6.32;2.90;;;;;;;18.43;50.86;100009.16;5075097;28;20044;-74
2023/04/19 05:13:13;;;;;;;5.60;3.60;;;;;;;18.42;51.19;100002.03;5075144;28;20044;-72
2023/04/19 05:15:41;;;;;;;5.72;3.15;;;;;;;18.43;50.93;100005.59;5075001;28;20056;-75
2023/04/19 05:18:09;;;;;;;4.80;2.75;;;;;;;18.42;50.92;100001.19;5075223;28;20138;-74
2023/04/19 05:20:37;;;;;;;4.82;2.92;;;;;;;18.42;50.80;100002.03;5075015;28;20079;-75
2023/04/19 05:23:05;;;;;;;5.03;2.78;;;;;;;18.42;51.29;100006.59;5073695;28;20055;-75
2023/04/19 05:25:35;;;;;;;5.63;3.05;;;;;;;18.42;50.82;100006.59;5075683;28;20108;-74
2023/04/19 05:28:03;;;;;;;6.15;3.30;;;;;;;18.41;51.00;100008.44;5076200;28;20060;-74
2023/04/19 05:30:31;;;;;;;5.63;3.28;;;;;;;18.42;51.10;100003.91;5074952;28;20064;-74
2023/04/19 05:33:00;;;;;;;6.90;3.10;;;;;;;18.42;50.89;100012.00;5074736;28;20044;-73
2023/04/19 05:35:28;;;;;;;5.18;3.05;;;;;;;18.41;50.68;100002.19;5074703;28;20076;-74
2023/04/19 05:37:56;;;;;;;5.20;2.88;;;;;;;18.40;51.05;100009.44;5074481;28;20044;-74
2023/04/19 05:40:24;;;;;;;5.63;2.85;;;;;;;18.40;50.82;100006.75;5074628;28;20080;-75
2023/04/19 05:42:54;;;;;;;6.38;3.40;;;;;;;18.41;50.82;100010.28;5075028;28;20433;-76
2023/04/19 05:45:22;;;;;;;6.32;2.97;;;;;;;18.42;50.76;100009.28;5074679;28;20045;-75
2023/04/19 05:47:50;;;;;;;6.03;3.05;;;;;;;18.41;50.65;100005.75;5074545;28;20135;-75
2023/04/19 05:50:19;;;;;;;5.53;3.30;;;;;;;18.41;50.52;100011.16;5074369;28;20064;-75
2023/04/19 05:52:47;;;;;;;6.00;3.10;;;;;;;18.40;50.48;100009.44;5074956;28;20093;-75
2023/04/19 05:55:16;;;;;;;5.78;3.20;;;;;;;18.40;50.15;100001.34;5074143;28;20102;-75
2023/04/19 05:57:45;;;;;;;6.47;2.92;;;;;;;18.40;50.03;99997.78;5074904;28;20076;-71
2023/04/19 06:00:16;;;;;;;4.80;2.80;;;;;;;18.42;50.34;100006.59;5074157;28;20127;-74
2023/04/19 06:02:44;;;;;;;6.18;3.22;;;;;;;18.41;50.29;99994.09;5074146;28;20090;-75
2023/04/19 06:05:12;;;;;;;6.05;3.13;;;;;;;18.40;50.39;99997.78;5074655;28;20445;-75
2023/04/19 06:07:40;;;;;;;5.28;3.13;;;;;;;18.41;50.44;99999.50;5073293;28;20040;-73
2023/04/19 06:10:22;;;;;;;5.50;3.25;;;;;;;18.41;50.27;99996.78;5073779;28;20149;-73
2023/04/19 06:12:53;;;;;;;4.95;2.90;;;;;;;18.42;50.74;99993.09;5073646;28;20045;-73
2023/04/19 06:15:24;;;;;;;5.57;3.00;;;;;;;18.43;50.34;99998.38;5073074;28;20114;-73
2023/04/19 06:17:52;;;;;;;5.15;2.75;;;;;;;18.42;50.54;100001.19;5073395;28;20065;-73
2023/04/19 06:20:21;;;;;;;7.13;3.20;;;;;;;18.44;50.71;99999.22;5075348;28;20048;-74
2023/04/19 06:22:49;;;;;;;6.78;3.10;;;;;;;18.43;50.72;99992.09;5073662;28;20504;-76
2023/04/19 06:25:17;;;;;;;5.65;3.00;;;;;;;18.44;51.17;99989.25;5073907;28;20094;-75
2023/04/19 06:27:45;;;;;;;7.07;3.15;;;;;;;18.43;50.66;99990.28;5073779;28;20147;-75
2023/04/19 06:30:14;;;;;;;7.47;3.45;;;;;;;18.45;51.16;99984.72;5073546;28;20110;-74
2023/04/19 06:32:43;;;;;;;6.78;3.47;;;;;;;18.46;50.91;99991.81;5073233;28;20090;-75
2023/04/19 06:35:12;;;;;;;8.80;3.13;;;;;;;18.47;51.23;99990.81;5073346;28;20535;-75
2023/04/19 06:37:40;;;;;;;8.77;3.10;;;;;;;18.45;51.83;99985.56;5076318;28;20056;-75
2023/04/19 06:40:10;;;;;;;9.30;3.22;;;;;;;18.47;51.36;99986.25;5076305;28;20048;-73
2023/04/19 06:42:38;;;;;;;10.02;3.10;;;;;;;18.48;52.08;99985.25;5058039;28;20053;-75
2023/04/19 06:45:08;;;;;;;7.35;3.38;;;;;;;18.49;51.75;99980.69;5053320;28;20445;-73
2023/04/19 06:47:36;;;;;;;9.25;3.00;;;;;;;18.48;52.06;99977.16;5056116;28;20123;-74
2023/04/19 06:50:07;;;;;;;5.95;3.50;;;;;;;18.48;52.12;99984.41;5073401;28;20059;-72
2023/04/19 06:52:35;;;;;;;10.05;3.65;;;;;;;18.51;52.40;99984.09;5073270;28;20051;-76
2023/04/19 06:55:04;;;;;;;6.85;3.03;;;;;;;18.51;52.93;99984.09;5073206;28;20052;-74
2023/04/19 06:57:32;;;;;;;8.13;3.50;;;;;;;18.51;52.67;99981.41;5074778;28;20051;-76
2023/04/19 07:00:00;;;;;;;6.88;2.95;;;;;;;18.52;52.78;99981.25;5072074;28;20052;-75
2023/04/19 07:02:29;;;;;;;6.40;3.20;;;;;;;18.55;52.91;99980.13;5077269;28;20505;-73
2023/04/19 07:04:57;;;;;;;7.35;3.45;;;;;;;18.55;52.60;99974.72;5072988;28;20090;-75
2023/04/19 07:07:27;;;;;;;6.70;3.33;;;;;;;18.54;52.65;99967.63;5072862;28;20052;-74
2023/04/19 07:09:55;;;;;;;5.88;2.75;;;;;;;18.55;52.67;99974.72;5072257;28;20056;-77
2023/04/19 07:12:23;;;;;;;8.13;3.50;;;;;;;18.55;52.91;99963.91;5071915;28;20502;-74
2023/04/19 07:14:55;;;;;;;7.32;3.33;;;;;;;18.57;52.44;99968.16;5073658;28;20102;-77
2023/04/19 07:17:23;;;;;;;7.50;3.00;;;;;;;18.56;52.70;99968.31;5073255;28;20071;-75
2023/04/19 07:19:52;;;;;;;5.30;3.05;;;;;;;18.58;52.63;99958.19;5073329;28;20485;-75
2023/04/19 07:22:21;;;;;;;8.95;3.13;;;;;;;18.59;52.72;99965.28;5073194;28;20044;-75
2023/04/19 07:24:51;;;;;;;8.30;3.20;;;;;;;18.60;52.46;99967.00;5072416;28;20490;-76
2023/04/19 07:27:19;;;;;;;8.68;3.10;;;;;;;18.60;52.85;99961.59;5072476;28;20055;-76
2023/04/19 07:29:47;;;;;;;6.38;3.20;;;;;;;18.62;52.95;99964.13;5072991;28;20048;-75
2023/04/19 07:32:18;;;;;;;6.13;3.03;;;;;;;18.62;52.85;99964.13;5073651;28;20045;-76
2023/04/19 07:34:46;;;;;;;7.20;3.15;;;;;;;18.61;52.86;99955.19;5073108;28;20090;-76
2023/04/19 07:37:14;;;;;;;6.30;2.95;;;;;;;18.63;52.71;99958.63;5072796;28;20535;-75
2023/04/19 07:39:42;;;;;;;6.03;2.83;;;;;;;18.63;52.90;99950.50;5073065;28;20050;-77
2023/04/19 07:42:12;;;;;;;7.95;3.08;;;;;;;18.64;52.87;99952.19;5072536;28;20048;-76
2023/04/19 07:44:40;;;;;;;7.20;3.30;;;;;;;18.63;53.16;99947.81;5072916;28;20414;-75
2023/04/19 07:47:08;;;;;;;7.85;3.03;;;;;;;18.65;53.02;99953.94;5072599;28;20040;-77
2023/04/19 07:49:37;;;;;;;7.70;3.28;;;;;;;18.66;52.99;99949.38;5072207;28;20560;-77
2023/04/19 07:52:07;;;;;;;6.97;3.00;;;;;;;18.68;53.30;99953.63;5072487;28;20413;-76
2023/04/19 07:54:38;;;;;;;7.55;3.10;;;;;;;18.67;53.13;99946.53;5072384;28;20387;-76
2023/04/19 07:57:06;;;;;;;6.32;3.42;;;;;;;18.69;52.86;99951.75;5072681;28;20497;-75
2023/04/19 07:59:36;;;;;;;7.32;3.30;;;;;;;18.70;53.13;99950.75;5072764;28;20098;-78
2023/04/19 08:02:04;;;;;;;4.90;2.72;;;;;;;18.70;53.13;99950.75;5072993;28;20055;-77
2023/04/19 08:04:32;;;;;;;5.03;2.75;;;;;;;18.72;53.06;99949.63;5072912;28;20383;-77
2023/04/19 08:07:03;;;;;;;7.72;3.08;;;;;;;18.72;52.97;99952.34;5072658;28;20413;-76
2023/04/19 08:09:31;;;;;;;7.00;3.00;;;;;;;18.72;53.19;99957.75;5073041;28;20126;-76
2023/04/19 08:12:00;;;;;;;5.60;2.70;;;;;;;18.73;52.85;99956.72;5072553;28;20497;-75
2023/04/19 08:14:28;;;;;;;5.55;2.70;;;;;;;18.73;52.74;99945.94;5072582;28;20405;-75
2023/04/19 08:17:19;;;;;;;6.28;2.85;;;;;;;18.74;52.90;99942.22;5072578;28;20473;-76
2023/04/19 08:19:56;;;;;;;4.82;2.90;;;;;;;18.75;52.86;99946.63;5072535;28;20094;-77
2023/04/19 08:22:24;;;;;;;4.43;2.67;;;;;;;18.75;53.00;99949.31;5072418;28;20087;-74
2023/04/19 08:24:53;;;;;;;5.15;2.70;;;;;;;18.77;52.72;99941.91;5072416;28;20094;-76
2023/04/19 08:27:21;;;;;;;6.03;2.70;;;;;;;18.78;52.97;99940.91;5072232;28;20489;-75
2023/04/19 08:29:50;;;;;;;4.78;2.90;;;;;;;18.80;53.11;99943.44;5072359;28;20064;-76
2023/04/19 08:32:19;;;;;;;6.28;2.92;;;;;;;18.79;53.23;99937.19;5072504;28;20482;-74
2023/04/19 08:34:48;;;;;;;6.95;3.22;;;;;;;18.81;52.92;99940.59;5072159;28;20508;-75
2023/04/19 08:37:16;;;;;;;8.80;3.10;;;;;;;18.83;53.03;99930.50;5075970;28;20087;-75
2023/04/19 08:39:45;;;;;;;5.60;2.78;;;;;;;18.84;52.80;99932.19;5079142;28;20075;-76
2023/04/19 08:42:13;;;;;;;4.43;2.75;;;;;;;18.84;52.95;99929.50;5078962;28;20135;-76
2023/04/19 08:45:04;;;;;;;6.97;2.75;;;;;;;18.86;52.51;99924.78;5079056;28;20127;-77
2023/04/19 08:47:37;;;;;;;4.32;2.60;;;;;;;18.87;51.88;99931.03;5079189;28;20045;-76
2023/04/19 08:50:24;;;;;;;4.85;2.33;;;;;;;18.88;52.00;99928.16;5078536;28;20398;-75
2023/04/19 08:53:02;;;;;;;5.57;3.00;;;;;;;18.90;52.11;99916.34;5078984;28;20056;-76
2023/04/19 08:55:34;;;;;;;7.18;2.83;;;;;;;18.89;52.08;99918.22;5079483;28;20055;-76
2023/04/19 08:58:03;;;;;;;5.65;2.97;;;;;;;18.92;52.10;99917.06;5079198;28;20048;-76
2023/04/19 09:00:40;;;;;;;5.18;2.53;;;;;;;18.93;51.99;99924.19;5078611;28;20059;-76
2023/04/19 09:03:10;;;;;;;6.03;2.80;;;;;;;18.94;52.01;99915.06;5078387;28;20485;-76
2023/04/19 09:05:39;;;;;;;5.03;2.90;;;;;;;18.95;52.23;99917.59;5078958;28;20056;-77
2023/04/19 09:08:22;;;;;;;4.97;2.70;;;;;;;18.95;52.62;99911.34;5079161;28;20512;-76
2023/04/19 09:10:54;;;;;;;3.45;2.30;;;;;;;18.98;51.98;99916.44;5079208;28;20394;-76
2023/04/19 09:13:22;;;;;;;3.92;2.33;;;;;;;18.99;52.31;99918.13;5078435;28;20079;-75
2023/04/19 09:15:52;;;;;;;4.50;2.35;;;;;;;18.99;51.82;99912.72;5078657;28;20082;-76
2023/04/19 09:18:23;;;;;;;8.27;2.90;;;;;;;18.99;51.66;99908.16;5078110;28;20055;-75
2023/04/19 09:20:56;;;;;;;5.03;2.28;;;;;;;19.01;51.95;99905.31;5078097;28;20398;-75
2023/04/19 09:23:25;;;;;;;4.83;2.80;;;;;;;19.01;51.93;99911.59;5078405;28;20525;-76
2023/04/19 09:25:56;;;;;;;5.97;2.70;;;;;;;19.03;51.88;99909.56;5078211;28;20055;-75
2023/04/19 09:28:55;;;;;;;5.10;2.55;;;;;;;19.04;51.90;99902.31;5078042;28;20052;-75
2023/04/19 09:31:24;;;;;;;5.57;3.00;;;;;;;19.05;51.45;99907.56;5078240;28;20480;-75
2023/04/19 09:34:16;;;;;;;5.05;2.47;;;;;;;19.07;51.80;99910.09;5078339;28;20048;-75
2023/04/19 09:36:45;;;;;;;4.28;2.42;;;;;;;19.07;51.74;99900.13;5078437;28;20048;-75
2023/04/19 09:39:14;;;;;;;5.15;2.83;;;;;;;19.07;51.83;99893.88;5078445;28;20115;-76
2023/04/19 09:41:53;;;;;;;5.40;2.50;;;;;;;19.10;51.78;99899.81;5078098;28;20468;-76
2023/04/19 09:44:21;;;;;;;4.20;2.83;;;;;;;19.12;51.92;99892.44;5078150;28;20037;-75
2023/04/19 09:46:52;;;;;;;5.10;2.80;;;;;;;19.14;52.00;99890.41;5078002;28;20391;-76
2023/04/19 09:49:23;;;;;;;5.20;2.63;;;;;;;19.15;52.22;99896.66;5075959;28;20052;-76
2023/04/19 09:52:14;;;;;;;4.18;2.40;;;;;;;19.17;52.53;99895.50;5074973;28;20165;-77
2023/04/19 09:54:44;;;;;;;5.22;2.78;;;;;;;19.18;52.42;99896.34;5074878;28;20055;-75
2023/04/19 09:57:15;;;;;;;5.50;2.67;;;;;;;19.21;52.48;99895.22;5074704;28;20076;-76
2023/04/19 09:59:43;;;;;;;5.47;2.92;;;;;;;19.22;52.44;99892.34;5074469;28;20056;-77
2023/04/19 10:02:14;;;;;;;5.80;2.75;;;;;;;19.23;52.42;99882.38;5074474;28;20113;-76
2023/04/19 10:04:44;;;;;;;5.03;2.60;;;;;;;19.26;52.38;99882.06;5074858;28;20047;-73
2023/04/19 10:07:17;;;;;;;5.10;2.75;;;;;;;19.28;52.83;99886.28;5074938;28;20400;-77
2023/04/19 10:09:59;;;;;;;4.20;2.55;;;;;;;19.29;52.53;99877.16;5074723;28;20095;-76
2023/04/19 10:12:32;;;;;;;4.22;2.65;;;;;;;19.31;52.82;99877.88;5074750;28;20102;-75
2023/04/19 10:15:06;;;;;;;4.45;2.45;;;;;;;19.32;52.72;99876.03;5074712;28;20063;-75
2023/04/19 10:17:34;;;;;;;5.50;2.72;;;;;;;19.34;52.50;99874.84;5074551;28;20475;-76
2023/04/19 10:20:09;;;;;;;4.30;2.67;;;;;;;19.34;52.59;99872.16;5074718;28;20049;-76
2023/04/19 10:22:38;;;;;;;5.00;2.50;;;;;;;19.36;52.85;99875.53;5074665;28;20504;-76
2023/04/19 10:25:14;;;;;;;4.90;2.60;;;;;;;19.37;52.97;99865.56;5075055;28;20102;-76
2023/04/19 10:27:44;;;;;;;5.05;2.55;;;;;;;19.36;52.65;99862.03;5075443;28;20052;-76
2023/04/19 10:30:19;;;;;;;4.70;2.50;;;;;;;19.40;52.66;99867.97;5074710;28;20058;-76
2023/04/19 10:32:52;;;;;;;5.35;2.72;;;;;;;19.41;52.43;99872.38;5074461;28;20036;-75
2023/04/19 10:35:23;;;;;;;4.50;2.42;;;;;;;19.41;52.14;99865.13;5074902;28;20044;-76
2023/04/19 10:38:09;;;;;;;5.05;2.85;;;;;;;19.42;52.36;99865.97;5074998;28;20082;-76
2023/04/19 10:40:56;;;;;;;5.93;2.60;;;;;;;19.39;52.24;99856.28;5074712;28;20348;-75
2023/04/19 10:43:25;;;;;;;5.63;2.50;;;;;;;19.43;52.03;99873.91;5074159;28;20060;-75
2023/04/19 10:45:53;;;;;;;4.13;2.53;;;;;;;19.43;52.27;99863.09;5074163;28;20456;-75
2023/04/19 10:48:37;;;;;;;5.38;3.20;;;;;;;19.44;51.85;99875.59;5074315;28;20129;-75
2023/04/19 10:51:14;;;;;;;5.57;3.03;;;;;;;19.44;51.92;99872.91;5073756;28;20044;-75
2023/04/19 10:53:47;;;;;;;5.57;3.10;;;;;;;19.44;51.70;99870.19;5074098;28;20131;-76
2023/04/19 10:56:17;;;;;;;5.20;3.17;;;;;;;19.45;51.81;99863.78;5074872;28;20512;-76
2023/04/19 10:59:21;;;;;;;5.70;2.90;;;;;;;19.47;51.47;99868.19;5075053;28;21068;-76
2023/04/19 11:01:52;;;;;;;5.18;2.90;;;;;;;19.47;51.68;99862.75;5051515;28;20052;-76
2023/04/19 11:04:22;;;;;;;4.60;2.90;;;;;;;19.46;51.52;99867.31;5074720;28;20367;-76
2023/04/19 11:07:01;;;;;;;4.55;2.80;;;;;;;19.49;51.80;99858.03;5073830;28;20055;-76
2023/04/19 11:09:33;;;;;;;4.35;2.70;;;;;;;19.50;51.56;99857.06;5074203;28;20110;-76
2023/04/19 11:12:04;;;;;;;5.15;2.97;;;;;;;19.50;51.51;99857.06;5073406;28;20052;-75
2023/04/19 11:14:35;;;;;;;5.72;2.90;;;;;;;19.50;51.42;99857.06;5074127;28;20169;-76
2023/04/19 11:17:14;;;;;;;4.20;2.80;;;;;;;19.51;51.88;99850.63;5072422;28;20521;-76
2023/04/19 11:19:44;;;;;;;4.00;2.80;;;;;;;19.52;51.64;99849.63;5073929;28;20071;-76
2023/04/19 11:22:13;;;;;;;4.15;2.60;;;;;;;19.51;51.70;99848.78;5073979;28;20048;-76
2023/04/19 11:24:46;;;;;;;4.88;2.88;;;;;;;19.53;51.58;99851.31;5073380;28;20040;-76
2023/04/19 11:27:15;;;;;;;5.82;2.72;;;;;;;19.54;51.60;99845.75;5073169;28;20542;-75
2023/04/19 11:29:43;;;;;;;5.60;3.20;;;;;;;19.55;51.75;99846.59;5073618;28;20048;-76
2023/04/19 11:32:12;;;;;;;5.70;3.00;;;;;;;19.56;51.52;99842.91;5073540;28;20460;-76
2023/04/19 11:34:40;;;;;;;4.00;2.50;;;;;;;19.57;51.52;99847.31;5074068;28;20127;-78
2023/04/19 11:37:10;;;;;;;4.43;3.03;;;;;;;19.58;51.58;99843.59;5073585;28;20040;-75
2023/04/19 11:39:47;;;;;;;4.28;2.67;;;;;;;19.60;51.48;99847.00;5073292;28;20068;-75
2023/04/19 11:42:19;;;;;;;4.25;2.60;;;;;;;19.61;51.65;99840.59;5073417;28;20661;-75